Terminal Aerodrome Forecast
Issued by NWS

Home | Current Version | Previous Version | Text Only | Print | Product List | Glossary On
Versions: 1 2 3 4 5 6 7 8 9 10 11 12 13 14 15 16 17
769
FTUS46 KPDT 272320
TAFALW
TAF
KALW 272320Z 2800/2824 24014G20KT P6SM BKN050 BKN100
     FM280500 19012KT P6SM SCT050 BKN100
     FM281900 20010KT P6SM SCT050 SCT250=

USA.gov is the U.S. government's official web portal to all federal, state and local government web resources and services.